createdAt,value
2023-03-22T00:01:19.862Z,6.82
2023-03-22T00:03:48.540Z,6.83
2023-03-22T00:06:16.896Z,6.83
2023-03-22T00:08:45.066Z,6.81
2023-03-22T00:11:13.091Z,6.82
2023-03-22T00:13:43.090Z,6.83
2023-03-22T00:16:11.240Z,6.83
2023-03-22T00:18:38.400Z,6.83
2023-03-22T00:21:05.709Z,6.83
2023-03-22T00:23:32.805Z,6.82
2023-03-22T00:25:59.817Z,6.82
2023-03-22T00:28:27.336Z,6.84
2023-03-22T00:30:57.389Z,6.83
2023-03-22T00:33:24.743Z,6.83
2023-03-22T00:35:59.483Z,6.82
2023-03-22T00:38:42.066Z,6.85
2023-03-22T00:41:20.511Z,6.87
2023-03-22T00:43:49.164Z,6.87
2023-03-22T00:46:18.443Z,6.87
2023-03-22T00:48:46.035Z,6.88
2023-03-22T00:51:13.932Z,6.87
2023-03-22T00:53:43.319Z,6.85
2023-03-22T00:56:14.376Z,6.88
2023-03-22T00:58:42.842Z,6.89
2023-03-22T01:01:14.192Z,6.88
2023-03-22T01:03:43.372Z,6.88
2023-03-22T01:06:11.335Z,6.88
2023-03-22T01:08:39.247Z,6.92
2023-03-22T01:11:07.881Z,6.90
2023-03-22T01:13:37.908Z,6.95
2023-03-22T01:16:06.642Z,6.92
2023-03-22T01:18:34.144Z,6.96
2023-03-22T01:21:01.251Z,6.98
2023-03-22T01:23:28.513Z,6.99
2023-03-22T01:25:55.597Z,6.98
2023-03-22T01:28:23.335Z,6.97
2023-03-22T01:30:51.837Z,7.00
2023-03-22T01:33:18.876Z,6.95
2023-03-22T01:35:45.949Z,6.99
2023-03-22T01:38:13.209Z,7.00
2023-03-22T01:40:40.528Z,7.01
2023-03-22T01:43:17.396Z,7.03
2023-03-22T01:45:48.129Z,7.03
2023-03-22T01:48:36.708Z,7.04
2023-03-22T01:51:12.202Z,7.03
2023-03-22T01:53:48.334Z,7.03
2023-03-22T01:56:16.664Z,7.04
2023-03-22T01:58:43.653Z,7.05
2023-03-22T02:01:11.814Z,7.04
2023-03-22T02:04:07.315Z,7.04
2023-03-22T02:06:38.459Z,7.05
2023-03-22T02:09:08.337Z,7.02
2023-03-22T02:11:42.420Z,7.04
2023-03-22T02:14:38.918Z,7.03
2023-03-22T02:17:44.407Z,7.06
2023-03-22T02:20:38.498Z,7.01
2023-03-22T02:23:30.196Z,7.02
2023-03-22T02:26:33.901Z,7.00
2023-03-22T02:29:00.988Z,6.99
2023-03-22T02:31:30.858Z,6.98
2023-03-22T02:34:25.555Z,6.99
2023-03-22T02:37:04.665Z,6.99
2023-03-22T02:39:40.836Z,6.99
2023-03-22T02:42:07.803Z,7.00
2023-03-22T02:44:47.157Z,7.01
2023-03-22T02:47:39.015Z,6.97
2023-03-22T02:50:27.675Z,6.99
2023-03-22T02:53:10.074Z,6.97
2023-03-22T02:55:48.795Z,6.96
2023-03-22T02:58:21.631Z,6.96
2023-03-22T03:00:53.673Z,6.98
2023-03-22T03:03:25.660Z,6.99
2023-03-22T03:05:56.770Z,6.96
2023-03-22T03:08:25.273Z,6.92
2023-03-22T03:10:54.432Z,6.89
2023-03-22T03:13:21.561Z,6.91
2023-03-22T03:15:59.359Z,6.86
2023-03-22T03:18:29.885Z,6.85
2023-03-22T03:21:25.085Z,6.84
2023-03-22T03:24:19.632Z,6.81
2023-03-22T03:27:17.133Z,6.83
2023-03-22T03:29:50.376Z,6.83
2023-03-22T03:32:25.834Z,6.84
2023-03-22T03:35:05.648Z,6.82
2023-03-22T03:38:02.447Z,6.86
2023-03-22T03:40:33.248Z,6.86
2023-03-22T03:43:03.723Z,6.91
2023-03-22T03:45:31.569Z,6.96
2023-03-22T03:48:02.007Z,6.98
2023-03-22T03:50:29.504Z,7.02
2023-03-22T03:52:56.876Z,7.07
2023-03-22T03:55:25.033Z,7.09
2023-03-22T03:57:52.160Z,7.15
2023-03-22T04:00:19.476Z,7.19
2023-03-22T04:02:46.543Z,7.23
2023-03-22T04:05:14.085Z,7.30
2023-03-22T04:07:41.337Z,7.35
2023-03-22T04:10:09.036Z,7.42
2023-03-22T04:12:36.514Z,7.46
2023-03-22T04:15:03.567Z,7.49
2023-03-22T04:17:32.369Z,7.61
2023-03-22T04:19:59.376Z,7.72
2023-03-22T04:22:26.826Z,7.83
2023-03-22T04:24:54.048Z,7.94
2023-03-22T04:27:22.637Z,8.07
2023-03-22T04:29:51.206Z,8.17
2023-03-22T04:32:19.412Z,8.24
2023-03-22T04:34:46.713Z,8.32
2023-03-22T04:37:15.250Z,8.34
2023-03-22T04:39:42.993Z,8.43
2023-03-22T04:42:10.507Z,8.51
2023-03-22T04:44:37.551Z,8.53
2023-03-22T04:47:10.318Z,8.47
2023-03-22T04:49:37.545Z,8.42
2023-03-22T04:52:04.636Z,8.38
2023-03-22T04:54:31.673Z,8.28
2023-03-22T04:56:58.718Z,8.33
2023-03-22T04:59:25.792Z,8.41
2023-03-22T05:01:52.897Z,8.44
2023-03-22T05:04:20.925Z,8.43
2023-03-22T05:06:48.353Z,8.46
2023-03-22T05:09:15.618Z,8.49
2023-03-22T05:11:43.336Z,8.49
2023-03-22T05:14:11.058Z,8.43
2023-03-22T05:16:40.865Z,8.43
2023-03-22T05:19:14.207Z,8.43
2023-03-22T05:21:44.273Z,8.40
2023-03-22T05:24:11.880Z,8.58
2023-03-22T05:26:42.383Z,9.29
2023-03-22T05:29:13.745Z,10.52
2023-03-22T05:31:40.710Z,11.36
2023-03-22T05:34:08.326Z,11.85
2023-03-22T05:36:36.794Z,12.24
2023-03-22T05:39:04.158Z,12.34
2023-03-22T05:41:36.372Z,12.47
2023-03-22T05:44:04.687Z,12.90
2023-03-22T05:46:31.683Z,13.60
2023-03-22T05:48:58.620Z,14.42
2023-03-22T05:51:25.880Z,14.69
2023-03-22T05:53:56.406Z,14.64
2023-03-22T05:56:24.740Z,14.63
2023-03-22T05:58:52.186Z,14.99
2023-03-22T06:01:21.622Z,15.31
2023-03-22T06:03:49.352Z,15.41
2023-03-22T06:06:16.438Z,16.60
2023-03-22T06:08:43.862Z,17.54
2023-03-22T06:11:11.243Z,20.25
2023-03-22T06:13:38.419Z,23.24
2023-03-22T06:16:06.197Z,26.21
2023-03-22T06:18:33.672Z,28.82
2023-03-22T06:21:00.954Z,30.72
2023-03-22T06:23:28.537Z,32.03
2023-03-22T06:25:55.739Z,32.06
2023-03-22T06:28:22.774Z,32.43
2023-03-22T06:30:49.851Z,31.59
2023-03-22T06:33:17.287Z,31.37
2023-03-22T06:35:44.322Z,31.93
2023-03-22T06:38:11.291Z,32.58
2023-03-22T06:40:38.568Z,33.26
2023-03-22T06:43:07.229Z,34.32
2023-03-22T06:45:36.181Z,35.48
2023-03-22T06:48:03.216Z,36.52
2023-03-22T06:50:30.289Z,37.49
2023-03-22T06:52:57.387Z,38.31
2023-03-22T06:55:24.595Z,38.93
2023-03-22T06:57:51.574Z,39.65
2023-03-22T07:00:18.988Z,40.10
2023-03-22T07:02:46.194Z,40.16
2023-03-22T07:05:14.769Z,40.37
2023-03-22T07:07:41.875Z,40.74
2023-03-22T07:10:09.233Z,41.14
2023-03-22T07:12:36.486Z,41.28
2023-03-22T07:15:04.004Z,41.16
2023-03-22T07:17:31.457Z,40.94
2023-03-22T07:19:58.489Z,40.74
2023-03-22T07:22:26.072Z,40.68
2023-03-22T07:24:57.713Z,40.74
2023-03-22T07:27:25.543Z,41.10
2023-03-22T07:29:52.802Z,41.54
2023-03-22T07:32:19.923Z,42.01
2023-03-22T07:34:47.237Z,42.57
2023-03-22T07:37:15.133Z,43.18
2023-03-22T07:39:42.216Z,43.82
2023-03-22T07:42:09.714Z,44.39
2023-03-22T07:44:36.852Z,44.85
2023-03-22T07:47:04.140Z,45.24
2023-03-22T07:49:31.882Z,45.57
2023-03-22T07:51:58.933Z,45.65
2023-03-22T07:54:33.515Z,45.60
2023-03-22T07:57:01.520Z,45.59
2023-03-22T07:59:28.765Z,45.80
2023-03-22T08:01:55.909Z,45.94
2023-03-22T08:04:23.243Z,46.04
2023-03-22T08:06:51.822Z,45.95
2023-03-22T08:09:18.803Z,46.00
2023-03-22T08:11:45.992Z,46.11
2023-03-22T08:14:13.338Z,46.11
2023-03-22T08:16:41.822Z,46.00
2023-03-22T08:19:08.881Z,45.94
2023-03-22T08:21:36.387Z,46.05
2023-03-22T08:24:04.447Z,46.32
2023-03-22T08:26:31.534Z,46.51
2023-03-22T08:28:58.505Z,46.49
2023-03-22T08:31:26.526Z,46.48
2023-03-22T08:33:53.640Z,46.55
2023-03-22T08:36:25.176Z,46.59
2023-03-22T08:38:53.383Z,46.31
2023-03-22T08:41:20.412Z,45.88
2023-03-22T08:43:47.417Z,45.57
2023-03-22T08:46:14.476Z,45.45
2023-03-22T08:48:41.848Z,45.51
2023-03-22T08:51:09.173Z,45.39
2023-03-22T08:53:36.182Z,45.37
2023-03-22T08:56:03.974Z,45.51
2023-03-22T08:58:31.323Z,45.39
2023-03-22T09:00:58.534Z,45.34
2023-03-22T09:03:25.884Z,45.33
2023-03-22T09:05:53.112Z,45.34
2023-03-22T09:08:20.627Z,45.18
2023-03-22T09:10:51.712Z,45.18
2023-03-22T09:13:19.792Z,45.33
2023-03-22T09:15:47.542Z,45.38
2023-03-22T09:18:15.186Z,45.45
2023-03-22T09:20:43.895Z,45.54
2023-03-22T09:23:10.902Z,45.56
2023-03-22T09:25:38.203Z,45.74
2023-03-22T09:28:05.868Z,45.71
2023-03-22T09:30:32.959Z,45.54
2023-03-22T09:32:59.918Z,45.24
2023-03-22T09:35:27.010Z,44.90
2023-03-22T09:37:54.787Z,44.56
2023-03-22T09:40:32.308Z,44.13
2023-03-22T09:43:06.484Z,43.62
2023-03-22T09:45:39.820Z,43.18
2023-03-22T09:48:38.473Z,42.85
2023-03-22T09:51:20.099Z,42.86
2023-03-22T09:53:47.189Z,42.73
2023-03-22T09:56:21.147Z,42.17
2023-03-22T09:58:57.796Z,41.77
2023-03-22T10:01:24.947Z,41.49
2023-03-22T10:04:18.072Z,41.23
2023-03-22T10:06:51.570Z,40.98
2023-03-22T10:09:27.306Z,40.91
2023-03-22T10:12:01.204Z,41.08
2023-03-22T10:14:36.086Z,41.54
2023-03-22T10:17:08.742Z,41.99
2023-03-22T10:19:40.399Z,42.12
2023-03-22T10:22:12.821Z,41.67
2023-03-22T10:24:44.575Z,41.17
2023-03-22T10:27:20.161Z,40.74
2023-03-22T10:30:08.500Z,40.55
2023-03-22T10:33:00.814Z,40.80
2023-03-22T10:35:28.653Z,41.10
2023-03-22T10:38:02.336Z,41.33
2023-03-22T10:40:32.959Z,41.20
2023-03-22T10:43:30.540Z,40.64
2023-03-22T10:45:59.121Z,40.35
2023-03-22T10:48:33.820Z,40.40
2023-03-22T10:51:01.439Z,40.24
2023-03-22T10:53:41.595Z,39.89
2023-03-22T10:56:18.963Z,39.75
2023-03-22T10:58:49.974Z,39.85
2023-03-22T11:01:30.225Z,39.83
2023-03-22T11:04:00.463Z,39.77
2023-03-22T11:06:30.194Z,39.90
2023-03-22T11:09:12.011Z,40.02
2023-03-22T11:11:50.012Z,40.14
2023-03-22T11:14:22.978Z,40.17
2023-03-22T11:17:01.208Z,40.18
2023-03-22T11:19:39.771Z,40.29
2023-03-22T11:22:22.976Z,40.22
2023-03-22T11:24:51.960Z,39.95
2023-03-22T11:27:28.922Z,39.69
2023-03-22T11:30:08.454Z,39.36
2023-03-22T11:32:40.132Z,39.01
2023-03-22T11:35:21.116Z,38.41
2023-03-22T11:37:51.166Z,37.74
2023-03-22T11:40:27.048Z,37.46
2023-03-22T11:43:16.390Z,37.49
2023-03-22T11:45:44.995Z,37.62
2023-03-22T11:48:19.233Z,37.49
2023-03-22T11:50:47.304Z,37.26
2023-03-22T11:53:18.257Z,36.85
2023-03-22T11:55:48.249Z,36.41
2023-03-22T11:58:28.373Z,36.04
2023-03-22T12:00:59.874Z,35.73
2023-03-22T12:03:31.498Z,35.52
2023-03-22T12:06:06.036Z,34.98
2023-03-22T12:08:52.739Z,33.81
2023-03-22T12:11:28.210Z,32.05
2023-03-22T12:14:00.371Z,30.45
2023-03-22T12:16:53.908Z,28.66
2023-03-22T12:19:36.895Z,26.59
2023-03-22T12:22:11.410Z,25.07
2023-03-22T12:24:38.699Z,23.65
2023-03-22T12:27:17.867Z,22.31
2023-03-22T12:29:59.420Z,21.21
2023-03-22T12:32:34.340Z,20.12
2023-03-22T12:35:18.286Z,19.17
2023-03-22T12:37:52.022Z,18.19
2023-03-22T12:40:42.369Z,17.40
2023-03-22T12:43:18.362Z,16.71
2023-03-22T12:45:56.288Z,16.17
2023-03-22T12:48:29.324Z,15.65
2023-03-22T12:51:05.786Z,15.26
2023-03-22T12:53:42.745Z,14.86
2023-03-22T12:56:12.879Z,14.49
2023-03-22T12:58:40.027Z,14.20
2023-03-22T13:01:23.728Z,13.92
2023-03-22T13:03:53.930Z,13.76
2023-03-22T13:06:35.378Z,13.51
2023-03-22T13:09:17.021Z,13.36
2023-03-22T13:11:49.768Z,13.16
2023-03-22T13:14:45.888Z,12.96
2023-03-22T13:17:13.651Z,12.82
2023-03-22T13:20:00.888Z,12.67
2023-03-22T13:22:51.180Z,12.53
2023-03-22T13:25:19.299Z,12.48
2023-03-22T13:27:46.267Z,12.38
2023-03-22T13:30:57.745Z,12.28
2023-03-22T13:33:29.047Z,12.13
2023-03-22T13:36:25.950Z,11.95
2023-03-22T13:39:05.112Z,11.86
2023-03-22T13:41:35.155Z,11.85
2023-03-22T13:44:19.416Z,11.78
2023-03-22T13:46:53.923Z,11.71
2023-03-22T13:49:42.400Z,11.64
2023-03-22T13:52:22.565Z,11.57
2023-03-22T13:54:52.744Z,11.51
2023-03-22T13:57:45.880Z,11.43
2023-03-22T14:00:22.461Z,11.37
2023-03-22T14:02:50.845Z,11.31
2023-03-22T14:05:22.502Z,11.26
2023-03-22T14:07:58.293Z,11.23
2023-03-22T14:10:28.688Z,11.17
2023-03-22T14:13:02.686Z,11.12
2023-03-22T14:15:34.705Z,11.05
2023-03-22T14:18:08.514Z,10.98
2023-03-22T14:20:38.863Z,10.91
